Kano, Nigeria
Current Conditions -  °F | °C
As of 6:45 PM on Thursday 23 Oct 2014 (Local Time) from KQAZ Reporting Station
Clear Clear  
Wind Chill: 90°   Ceiling: Unl
Heat Index: 90°   Visibility: 6mi
Dew Point: 30°   Wind: 2mph
Humidity: 12%   Direction: 200°SSW
Pressure: 29.88"   Gusts: NA
Location:  12°N, 8.52°E
Report Text: KQAZ 231745Z AUTO 20002KT 9999 CLR 32/M01 A2988 RMK CDP03565 CLR
Loading
Personal Weather Stations






























Interactive Weather Map
Tropical Storm Tracking
New forecast layout! Learn more

10-Day Weather Forecast

Advertisements
Track Severe Weather on mobile